sensor_id;sensor_type;location;lat;lon;timestamp;P1;durP1;ratioP1;P2;durP2;ratioP2
22107;SDS011;11220;48.812;9.128;2023-07-13T00:01:44;0.50;;;0.38;;
22107;SDS011;11220;48.812;9.128;2023-07-13T00:04:11;0.20;;;0.13;;
22107;SDS011;11220;48.812;9.128;2023-07-13T00:06:37;0.20;;;0.20;;
22107;SDS011;11220;48.812;9.128;2023-07-13T00:09:02;0.40;;;0.30;;
22107;SDS011;11220;48.812;9.128;2023-07-13T00:11:28;0.10;;;0.10;;
22107;SDS011;11220;48.812;9.128;2023-07-13T00:13:53;0.10;;;0.10;;
22107;SDS011;11220;48.812;9.128;2023-07-13T00:16:19;0.25;;;0.10;;
22107;SDS011;11220;48.812;9.128;2023-07-13T00:18:45;0.30;;;0.28;;
22107;SDS011;11220;48.812;9.128;2023-07-13T00:21:14;0.35;;;0.20;;
22107;SDS011;11220;48.812;9.128;2023-07-13T00:23:40;0.10;;;0.10;;
22107;SDS011;11220;48.812;9.128;2023-07-13T00:26:08;0.30;;;0.20;;
22107;SDS011;11220;48.812;9.128;2023-07-13T00:28:35;0.17;;;0.15;;
22107;SDS011;11220;48.812;9.128;2023-07-13T00:31:01;0.30;;;0.30;;
22107;SDS011;11220;48.812;9.128;2023-07-13T00:33:30;0.10;;;0.10;;
22107;SDS011;11220;48.812;9.128;2023-07-13T00:35:55;0.30;;;0.30;;
22107;SDS011;11220;48.812;9.128;2023-07-13T00:38:22;0.15;;;0.15;;
22107;SDS011;11220;48.812;9.128;2023-07-13T00:40:48;0.15;;;0.15;;
22107;SDS011;11220;48.812;9.128;2023-07-13T00:43:15;0.10;;;0.10;;
22107;SDS011;11220;48.812;9.128;2023-07-13T00:48:08;0.15;;;0.15;;
22107;SDS011;11220;48.812;9.128;2023-07-13T00:50:39;0.25;;;0.20;;
22107;SDS011;11220;48.812;9.128;2023-07-13T00:53:06;0.20;;;0.20;;
22107;SDS011;11220;48.812;9.128;2023-07-13T00:55:33;0.45;;;0.30;;
22107;SDS011;11220;48.812;9.128;2023-07-13T00:57:59;0.50;;;0.30;;
22107;SDS011;11220;48.812;9.128;2023-07-13T01:00:27;0.52;;;0.22;;
22107;SDS011;11220;48.812;9.128;2023-07-13T01:02:54;0.38;;;0.20;;
22107;SDS011;11220;48.812;9.128;2023-07-13T01:05:21;0.20;;;0.20;;
22107;SDS011;11220;48.812;9.128;2023-07-13T01:07:48;0.30;;;0.20;;
22107;SDS011;11220;48.812;9.128;2023-07-13T01:10:17;0.22;;;0.20;;
22107;SDS011;11220;48.812;9.128;2023-07-13T01:12:46;0.30;;;0.20;;
22107;SDS011;11220;48.812;9.128;2023-07-13T01:18:02;0.28;;;0.20;;
22107;SDS011;11220;48.812;9.128;2023-07-13T01:20:50;0.22;;;0.20;;
22107;SDS011;11220;48.812;9.128;2023-07-13T01:23:17;0.20;;;0.20;;
22107;SDS011;11220;48.812;9.128;2023-07-13T01:25:44;0.15;;;0.15;;
22107;SDS011;11220;48.812;9.128;2023-07-13T01:28:09;0.30;;;0.17;;
22107;SDS011;11220;48.812;9.128;2023-07-13T01:30:35;0.20;;;0.20;;
22107;SDS011;11220;48.812;9.128;2023-07-13T01:33:04;0.20;;;0.20;;
22107;SDS011;11220;48.812;9.128;2023-07-13T01:35:34;0.30;;;0.28;;
22107;SDS011;11220;48.812;9.128;2023-07-13T01:38:00;0.47;;;0.25;;
22107;SDS011;11220;48.812;9.128;2023-07-13T01:40:26;0.20;;;0.20;;
22107;SDS011;11220;48.812;9.128;2023-07-13T01:42:52;0.40;;;0.30;;
22107;SDS011;11220;48.812;9.128;2023-07-13T01:45:18;0.30;;;0.28;;
22107;SDS011;11220;48.812;9.128;2023-07-13T01:47:44;0.85;;;0.30;;
22107;SDS011;11220;48.812;9.128;2023-07-13T01:50:09;0.20;;;0.20;;
22107;SDS011;11220;48.812;9.128;2023-07-13T01:52:35;0.20;;;0.20;;
22107;SDS011;11220;48.812;9.128;2023-07-13T01:55:00;0.30;;;0.25;;
22107;SDS011;11220;48.812;9.128;2023-07-13T01:57:27;0.45;;;0.38;;
22107;SDS011;11220;48.812;9.128;2023-07-13T01:59:52;0.30;;;0.30;;
22107;SDS011;11220;48.812;9.128;2023-07-13T02:02:18;0.43;;;0.35;;
22107;SDS011;11220;48.812;9.128;2023-07-13T02:04:44;0.35;;;0.28;;
22107;SDS011;11220;48.812;9.128;2023-07-13T02:07:10;0.20;;;0.20;;
22107;SDS011;11220;48.812;9.128;2023-07-13T02:09:35;0.47;;;0.30;;
22107;SDS011;11220;48.812;9.128;2023-07-13T02:12:01;0.40;;;0.25;;
22107;SDS011;11220;48.812;9.128;2023-07-13T02:14:27;0.20;;;0.20;;
22107;SDS011;11220;48.812;9.128;2023-07-13T02:16:52;0.20;;;0.20;;
22107;SDS011;11220;48.812;9.128;2023-07-13T02:19:18;0.20;;;0.20;;
22107;SDS011;11220;48.812;9.128;2023-07-13T02:21:43;0.30;;;0.30;;
22107;SDS011;11220;48.812;9.128;2023-07-13T02:24:09;0.20;;;0.20;;
22107;SDS011;11220;48.812;9.128;2023-07-13T02:26:34;0.20;;;0.13;;
22107;SDS011;11220;48.812;9.128;2023-07-13T02:29:00;0.20;;;0.20;;
22107;SDS011;11220;48.812;9.128;2023-07-13T02:31:26;1.17;;;0.28;;
22107;SDS011;11220;48.812;9.128;2023-07-13T02:33:52;0.13;;;0.13;;
22107;SDS011;11220;48.812;9.128;2023-07-13T02:36:17;0.38;;;0.30;;
22107;SDS011;11220;48.812;9.128;2023-07-13T02:38:43;0.30;;;0.30;;
22107;SDS011;11220;48.812;9.128;2023-07-13T02:41:09;0.30;;;0.30;;
22107;SDS011;11220;48.812;9.128;2023-07-13T02:43:37;0.40;;;0.30;;
22107;SDS011;11220;48.812;9.128;2023-07-13T02:46:03;0.50;;;0.30;;
22107;SDS011;11220;48.812;9.128;2023-07-13T02:48:35;0.30;;;0.30;;
22107;SDS011;11220;48.812;9.128;2023-07-13T02:51:01;0.30;;;0.30;;
22107;SDS011;11220;48.812;9.128;2023-07-13T02:53:27;0.40;;;0.40;;
22107;SDS011;11220;48.812;9.128;2023-07-13T02:55:53;0.20;;;0.20;;
22107;SDS011;11220;48.812;9.128;2023-07-13T02:58:18;0.77;;;0.20;;
22107;SDS011;11220;48.812;9.128;2023-07-13T03:00:44;0.20;;;0.20;;
22107;SDS011;11220;48.812;9.128;2023-07-13T03:03:11;0.32;;;0.32;;
22107;SDS011;11220;48.812;9.128;2023-07-13T03:05:38;0.32;;;0.20;;
22107;SDS011;11220;48.812;9.128;2023-07-13T03:08:06;0.30;;;0.30;;
22107;SDS011;11220;48.812;9.128;2023-07-13T03:10:32;0.30;;;0.30;;
22107;SDS011;11220;48.812;9.128;2023-07-13T03:12:57;0.30;;;0.30;;
22107;SDS011;11220;48.812;9.128;2023-07-13T03:15:23;0.30;;;0.30;;
22107;SDS011;11220;48.812;9.128;2023-07-13T03:17:48;0.60;;;0.30;;
22107;SDS011;11220;48.812;9.128;2023-07-13T03:20:14;0.30;;;0.20;;
22107;SDS011;11220;48.812;9.128;2023-07-13T03:22:40;0.30;;;0.30;;
22107;SDS011;11220;48.812;9.128;2023-07-13T03:30:09;0.75;;;0.20;;
22107;SDS011;11220;48.812;9.128;2023-07-13T03:32:34;0.30;;;0.30;;
22107;SDS011;11220;48.812;9.128;2023-07-13T03:35:00;0.30;;;0.30;;
22107;SDS011;11220;48.812;9.128;2023-07-13T03:37:26;0.30;;;0.30;;
22107;SDS011;11220;48.812;9.128;2023-07-13T03:39:51;0.30;;;0.30;;
22107;SDS011;11220;48.812;9.128;2023-07-13T03:42:17;0.32;;;0.30;;
22107;SDS011;11220;48.812;9.128;2023-07-13T03:44:42;0.30;;;0.30;;
22107;SDS011;11220;48.812;9.128;2023-07-13T03:47:17;0.93;;;0.30;;
22107;SDS011;11220;48.812;9.128;2023-07-13T03:49:42;0.47;;;0.30;;
22107;SDS011;11220;48.812;9.128;2023-07-13T03:52:08;0.30;;;0.28;;
22107;SDS011;11220;48.812;9.128;2023-07-13T03:54:33;0.38;;;0.25;;
22107;SDS011;11220;48.812;9.128;2023-07-13T03:56:59;0.20;;;0.20;;
22107;SDS011;11220;48.812;9.128;2023-07-13T03:59:24;0.30;;;0.30;;
22107;SDS011;11220;48.812;9.128;2023-07-13T04:01:50;0.30;;;0.30;;
22107;SDS011;11220;48.812;9.128;2023-07-13T04:04:15;0.17;;;0.17;;
22107;SDS011;11220;48.812;9.128;2023-07-13T04:06:41;0.40;;;0.30;;
22107;SDS011;11220;48.812;9.128;2023-07-13T04:09:06;0.40;;;0.30;;
22107;SDS011;11220;48.812;9.128;2023-07-13T04:11:33;0.50;;;0.30;;
22107;SDS011;11220;48.812;9.128;2023-07-13T04:14:01;0.40;;;0.40;;
22107;SDS011;11220;48.812;9.128;2023-07-13T04:16:27;1.55;;;0.30;;
22107;SDS011;11220;48.812;9.128;2023-07-13T04:18:53;1.23;;;0.30;;
22107;SDS011;11220;48.812;9.128;2023-07-13T04:21:24;0.38;;;0.30;;
22107;SDS011;11220;48.812;9.128;2023-07-13T04:23:50;0.57;;;0.45;;
22107;SDS011;11220;48.812;9.128;2023-07-13T04:26:15;0.70;;;0.50;;
22107;SDS011;11220;48.812;9.128;2023-07-13T04:28:41;0.40;;;0.40;;
22107;SDS011;11220;48.812;9.128;2023-07-13T04:31:07;0.70;;;0.40;;
22107;SDS011;11220;48.812;9.128;2023-07-13T04:33:32;0.73;;;0.45;;
22107;SDS011;11220;48.812;9.128;2023-07-13T04:35:58;0.40;;;0.40;;
22107;SDS011;11220;48.812;9.128;2023-07-13T04:38:25;0.35;;;0.30;;
22107;SDS011;11220;48.812;9.128;2023-07-13T04:40:54;0.93;;;0.70;;
22107;SDS011;11220;48.812;9.128;2023-07-13T04:43:21;0.50;;;0.50;;
22107;SDS011;11220;48.812;9.128;2023-07-13T04:45:47;0.80;;;0.50;;
22107;SDS011;11220;48.812;9.128;2023-07-13T04:48:13;0.63;;;0.63;;
22107;SDS011;11220;48.812;9.128;2023-07-13T04:50:38;0.93;;;0.45;;
22107;SDS011;11220;48.812;9.128;2023-07-13T04:53:04;0.50;;;0.50;;
22107;SDS011;11220;48.812;9.128;2023-07-13T04:55:30;0.25;;;0.25;;
22107;SDS011;11220;48.812;9.128;2023-07-13T04:57:56;1.80;;;0.40;;
22107;SDS011;11220;48.812;9.128;2023-07-13T05:00:26;0.45;;;0.45;;
22107;SDS011;11220;48.812;9.128;2023-07-13T05:02:51;0.40;;;0.38;;
22107;SDS011;11220;48.812;9.128;2023-07-13T05:05:19;0.40;;;0.40;;
22107;SDS011;11220;48.812;9.128;2023-07-13T05:07:44;0.55;;;0.45;;
22107;SDS011;11220;48.812;9.128;2023-07-13T05:10:10;0.80;;;0.50;;
22107;SDS011;11220;48.812;9.128;2023-07-13T05:12:35;0.50;;;0.50;;
22107;SDS011;11220;48.812;9.128;2023-07-13T05:15:01;0.50;;;0.50;;
22107;SDS011;11220;48.812;9.128;2023-07-13T05:17:27;0.40;;;0.40;;
22107;SDS011;11220;48.812;9.128;2023-07-13T05:19:53;0.70;;;0.50;;
22107;SDS011;11220;48.812;9.128;2023-07-13T05:22:19;0.70;;;0.55;;
22107;SDS011;11220;48.812;9.128;2023-07-13T05:24:44;0.32;;;0.32;;
22107;SDS011;11220;48.812;9.128;2023-07-13T05:27:10;0.40;;;0.40;;
22107;SDS011;11220;48.812;9.128;2023-07-13T05:29:36;1.20;;;0.50;;
22107;SDS011;11220;48.812;9.128;2023-07-13T05:32:01;0.40;;;0.40;;
22107;SDS011;11220;48.812;9.128;2023-07-13T05:34:27;0.50;;;0.50;;
22107;SDS011;11220;48.812;9.128;2023-07-13T05:36:54;0.40;;;0.35;;
22107;SDS011;11220;48.812;9.128;2023-07-13T05:39:19;0.55;;;0.50;;
22107;SDS011;11220;48.812;9.128;2023-07-13T05:41:45;0.47;;;0.40;;
22107;SDS011;11220;48.812;9.128;2023-07-13T05:44:10;0.38;;;0.38;;
22107;SDS011;11220;48.812;9.128;2023-07-13T05:46:36;0.45;;;0.45;;
22107;SDS011;11220;48.812;9.128;2023-07-13T05:49:04;0.70;;;0.60;;
22107;SDS011;11220;48.812;9.128;2023-07-13T05:51:30;0.50;;;0.40;;
22107;SDS011;11220;48.812;9.128;2023-07-13T05:53:55;0.65;;;0.50;;
22107;SDS011;11220;48.812;9.128;2023-07-13T05:56:21;0.52;;;0.50;;
22107;SDS011;11220;48.812;9.128;2023-07-13T05:58:47;0.40;;;0.40;;
22107;SDS011;11220;48.812;9.128;2023-07-13T06:01:14;0.52;;;0.50;;
22107;SDS011;11220;48.812;9.128;2023-07-13T06:03:40;0.50;;;0.50;;
22107;SDS011;11220;48.812;9.128;2023-07-13T06:06:07;0.40;;;0.40;;
22107;SDS011;11220;48.812;9.128;2023-07-13T06:08:34;0.20;;;0.20;;
22107;SDS011;11220;48.812;9.128;2023-07-13T06:13:32;0.38;;;0.30;;
22107;SDS011;11220;48.812;9.128;2023-07-13T06:15:58;0.32;;;0.20;;
22107;SDS011;11220;48.812;9.128;2023-07-13T06:18:24;0.22;;;0.22;;
22107;SDS011;11220;48.812;9.128;2023-07-13T06:20:49;0.30;;;0.30;;
22107;SDS011;11220;48.812;9.128;2023-07-13T06:23:15;0.30;;;0.30;;
22107;SDS011;11220;48.812;9.128;2023-07-13T06:25:41;0.38;;;0.30;;
22107;SDS011;11220;48.812;9.128;2023-07-13T06:28:07;0.20;;;0.20;;
22107;SDS011;11220;48.812;9.128;2023-07-13T06:30:33;0.30;;;0.28;;
22107;SDS011;11220;48.812;9.128;2023-07-13T06:32:58;0.20;;;0.20;;
22107;SDS011;11220;48.812;9.128;2023-07-13T06:35:24;0.20;;;0.20;;
22107;SDS011;11220;48.812;9.128;2023-07-13T06:37:50;0.30;;;0.30;;
22107;SDS011;11220;48.812;9.128;2023-07-13T06:40:15;0.30;;;0.30;;
22107;SDS011;11220;48.812;9.128;2023-07-13T06:42:42;0.30;;;0.30;;
22107;SDS011;11220;48.812;9.128;2023-07-13T06:45:07;0.25;;;0.20;;
22107;SDS011;11220;48.812;9.128;2023-07-13T06:47:33;0.20;;;0.20;;
22107;SDS011;11220;48.812;9.128;2023-07-13T06:50:00;0.20;;;0.20;;
22107;SDS011;11220;48.812;9.128;2023-07-13T06:52:25;0.20;;;0.20;;
22107;SDS011;11220;48.812;9.128;2023-07-13T06:54:51;0.20;;;0.20;;
22107;SDS011;11220;48.812;9.128;2023-07-13T06:57:16;0.68;;;0.20;;
22107;SDS011;11220;48.812;9.128;2023-07-13T06:59:42;0.20;;;0.20;;
22107;SDS011;11220;48.812;9.128;2023-07-13T07:02:09;0.20;;;0.20;;
22107;SDS011;11220;48.812;9.128;2023-07-13T07:04:35;0.20;;;0.20;;
22107;SDS011;11220;48.812;9.128;2023-07-13T07:07:01;0.30;;;0.20;;
22107;SDS011;11220;48.812;9.128;2023-07-13T07:09:27;0.65;;;0.20;;
22107;SDS011;11220;48.812;9.128;2023-07-13T07:11:54;0.20;;;0.20;;
22107;SDS011;11220;48.812;9.128;2023-07-13T07:14:20;0.20;;;0.20;;
22107;SDS011;11220;48.812;9.128;2023-07-13T07:16:45;0.20;;;0.20;;
22107;SDS011;11220;48.812;9.128;2023-07-13T07:19:11;0.30;;;0.20;;
22107;SDS011;11220;48.812;9.128;2023-07-13T07:21:36;0.20;;;0.20;;
22107;SDS011;11220;48.812;9.128;2023-07-13T07:24:02;0.10;;;0.10;;
22107;SDS011;11220;48.812;9.128;2023-07-13T07:26:29;0.20;;;0.20;;
22107;SDS011;11220;48.812;9.128;2023-07-13T07:28:55;0.20;;;0.10;;
22107;SDS011;11220;48.812;9.128;2023-07-13T07:31:20;0.20;;;0.20;;
22107;SDS011;11220;48.812;9.128;2023-07-13T07:33:46;0.10;;;0.10;;
22107;SDS011;11220;48.812;9.128;2023-07-13T07:36:11;0.30;;;0.20;;
22107;SDS011;11220;48.812;9.128;2023-07-13T07:38:37;1.02;;;0.15;;
22107;SDS011;11220;48.812;9.128;2023-07-13T07:41:03;0.22;;;0.22;;
22107;SDS011;11220;48.812;9.128;2023-07-13T07:43:29;0.10;;;0.10;;
22107;SDS011;11220;48.812;9.128;2023-07-13T07:45:56;0.10;;;0.10;;
22107;SDS011;11220;48.812;9.128;2023-07-13T07:48:21;0.10;;;0.00;;
22107;SDS011;11220;48.812;9.128;2023-07-13T07:50:47;0.22;;;0.10;;
22107;SDS011;11220;48.812;9.128;2023-07-13T07:53:13;0.10;;;0.10;;
22107;SDS011;11220;48.812;9.128;2023-07-13T07:55:38;0.10;;;0.10;;
22107;SDS011;11220;48.812;9.128;2023-07-13T07:58:04;0.10;;;0.10;;
22107;SDS011;11220;48.812;9.128;2023-07-13T08:00:30;0.10;;;0.10;;
22107;SDS011;11220;48.812;9.128;2023-07-13T08:02:57;0.10;;;0.10;;
22107;SDS011;11220;48.812;9.128;2023-07-13T08:05:23;0.30;;;0.20;;
22107;SDS011;11220;48.812;9.128;2023-07-13T08:07:49;0.10;;;0.10;;
22107;SDS011;11220;48.812;9.128;2023-07-13T08:10:15;0.10;;;0.10;;
22107;SDS011;11220;48.812;9.128;2023-07-13T08:12:41;0.10;;;0.10;;
22107;SDS011;11220;48.812;9.128;2023-07-13T08:15:08;0.10;;;0.10;;
22107;SDS011;11220;48.812;9.128;2023-07-13T08:17:36;0.20;;;0.20;;
22107;SDS011;11220;48.812;9.128;2023-07-13T08:20:02;0.10;;;0.10;;
22107;SDS011;11220;48.812;9.128;2023-07-13T08:22:27;0.00;;;0.00;;
22107;SDS011;11220;48.812;9.128;2023-07-13T08:24:53;0.13;;;0.10;;
22107;SDS011;11220;48.812;9.128;2023-07-13T08:27:25;0.10;;;0.10;;
22107;SDS011;11220;48.812;9.128;2023-07-13T08:29:52;0.20;;;0.20;;
22107;SDS011;11220;48.812;9.128;2023-07-13T08:32:18;0.00;;;0.00;;
22107;SDS011;11220;48.812;9.128;2023-07-13T08:34:45;0.20;;;0.10;;
22107;SDS011;11220;48.812;9.128;2023-07-13T08:37:11;0.22;;;0.10;;
22107;SDS011;11220;48.812;9.128;2023-07-13T08:39:37;0.10;;;0.10;;
22107;SDS011;11220;48.812;9.128;2023-07-13T08:42:07;0.10;;;0.10;;
22107;SDS011;11220;48.812;9.128;2023-07-13T08:44:59;0.28;;;0.10;;
22107;SDS011;11220;48.812;9.128;2023-07-13T08:47:28;0.10;;;0.10;;
22107;SDS011;11220;48.812;9.128;2023-07-13T08:49:58;0.22;;;0.10;;
22107;SDS011;11220;48.812;9.128;2023-07-13T08:52:28;0.10;;;0.10;;
22107;SDS011;11220;48.812;9.128;2023-07-13T08:55:11;0.20;;;0.20;;
22107;SDS011;11220;48.812;9.128;2023-07-13T08:57:48;0.10;;;0.10;;
22107;SDS011;11220;48.812;9.128;2023-07-13T09:00:19;0.20;;;0.10;;
22107;SDS011;11220;48.812;9.128;2023-07-13T09:02:56;0.10;;;0.00;;
22107;SDS011;11220;48.812;9.128;2023-07-13T09:05:28;0.40;;;0.10;;
22107;SDS011;11220;48.812;9.128;2023-07-13T09:08:33;0.03;;;0.03;;
22107;SDS011;11220;48.812;9.128;2023-07-13T09:13:57;0.10;;;0.10;;
22107;SDS011;11220;48.812;9.128;2023-07-13T09:16:31;0.10;;;0.10;;
22107;SDS011;11220;48.812;9.128;2023-07-13T09:19:00;0.10;;;0.10;;
22107;SDS011;11220;48.812;9.128;2023-07-13T09:21:37;0.10;;;0.10;;
22107;SDS011;11220;48.812;9.128;2023-07-13T09:26:57;0.20;;;0.20;;
22107;SDS011;11220;48.812;9.128;2023-07-13T09:29:27;0.10;;;0.10;;
22107;SDS011;11220;48.812;9.128;2023-07-13T09:31:55;0.13;;;0.10;;
22107;SDS011;11220;48.812;9.128;2023-07-13T09:34:23;0.08;;;0.00;;
22107;SDS011;11220;48.812;9.128;2023-07-13T09:36:50;0.20;;;0.10;;
22107;SDS011;11220;48.812;9.128;2023-07-13T09:39:29;0.10;;;0.10;;
22107;SDS011;11220;48.812;9.128;2023-07-13T09:44:36;0.00;;;0.00;;
22107;SDS011;11220;48.812;9.128;2023-07-13T09:47:12;0.10;;;0.05;;
22107;SDS011;11220;48.812;9.128;2023-07-13T09:49:41;0.10;;;0.10;;
22107;SDS011;11220;48.812;9.128;2023-07-13T09:52:10;0.10;;;0.10;;
22107;SDS011;11220;48.812;9.128;2023-07-13T09:54:39;0.10;;;0.10;;
22107;SDS011;11220;48.812;9.128;2023-07-13T09:57:18;0.63;;;0.20;;
22107;SDS011;11220;48.812;9.128;2023-07-13T09:59:48;0.10;;;0.10;;
22107;SDS011;11220;48.812;9.128;2023-07-13T10:05:02;0.10;;;0.10;;
22107;SDS011;11220;48.812;9.128;2023-07-13T10:07:30;0.20;;;0.10;;
22107;SDS011;11220;48.812;9.128;2023-07-13T10:09:58;0.40;;;0.20;;
22107;SDS011;11220;48.812;9.128;2023-07-13T10:12:26;0.20;;;0.20;;
22107;SDS011;11220;48.812;9.128;2023-07-13T10:14:54;0.10;;;0.10;;
22107;SDS011;11220;48.812;9.128;2023-07-13T10:17:29;0.10;;;0.10;;
22107;SDS011;11220;48.812;9.128;2023-07-13T10:20:00;0.25;;;0.10;;
22107;SDS011;11220;48.812;9.128;2023-07-13T10:22:31;0.20;;;0.10;;
22107;SDS011;11220;48.812;9.128;2023-07-13T10:24:58;0.10;;;0.10;;
22107;SDS011;11220;48.812;9.128;2023-07-13T10:27:33;0.10;;;0.10;;
22107;SDS011;11220;48.812;9.128;2023-07-13T10:32:48;0.60;;;0.20;;
22107;SDS011;11220;48.812;9.128;2023-07-13T10:35:15;0.10;;;0.10;;
22107;SDS011;11220;48.812;9.128;2023-07-13T10:40:25;0.10;;;0.10;;
22107;SDS011;11220;48.812;9.128;2023-07-13T10:42:57;0.00;;;0.00;;
22107;SDS011;11220;48.812;9.128;2023-07-13T10:45:25;0.10;;;0.10;;
22107;SDS011;11220;48.812;9.128;2023-07-13T10:47:53;0.33;;;0.10;;
22107;SDS011;11220;48.812;9.128;2023-07-13T10:50:24;0.20;;;0.17;;
22107;SDS011;11220;48.812;9.128;2023-07-13T10:52:53;0.10;;;0.10;;
22107;SDS011;11220;48.812;9.128;2023-07-13T11:00:47;0.10;;;0.10;;
22107;SDS011;11220;48.812;9.128;2023-07-13T11:03:28;0.10;;;0.10;;
22107;SDS011;11220;48.812;9.128;2023-07-13T11:06:15;0.10;;;0.10;;
22107;SDS011;11220;48.812;9.128;2023-07-13T11:08:54;0.17;;;0.10;;
22107;SDS011;11220;48.812;9.128;2023-07-13T11:18:50;0.10;;;0.10;;
22107;SDS011;11220;48.812;9.128;2023-07-13T11:21:18;0.32;;;0.20;;
22107;SDS011;11220;48.812;9.128;2023-07-13T11:23:51;0.10;;;0.10;;
22107;SDS011;11220;48.812;9.128;2023-07-13T11:26:37;0.10;;;0.10;;
22107;SDS011;11220;48.812;9.128;2023-07-13T11:29:24;0.20;;;0.20;;
22107;SDS011;11220;48.812;9.128;2023-07-13T11:31:59;0.10;;;0.10;;
22107;SDS011;11220;48.812;9.128;2023-07-13T11:34:30;0.20;;;0.10;;
22107;SDS011;11220;48.812;9.128;2023-07-13T11:37:02;0.30;;;0.20;;
22107;SDS011;11220;48.812;9.128;2023-07-13T11:39:29;0.10;;;0.10;;
22107;SDS011;11220;48.812;9.128;2023-07-13T11:41:59;0.20;;;0.20;;
22107;SDS011;11220;48.812;9.128;2023-07-13T11:44:32;0.17;;;0.17;;
22107;SDS011;11220;48.812;9.128;2023-07-13T11:47:00;0.15;;;0.15;;
22107;SDS011;11220;48.812;9.128;2023-07-13T11:49:40;0.10;;;0.10;;
22107;SDS011;11220;48.812;9.128;2023-07-13T11:52:11;0.20;;;0.20;;
22107;SDS011;11220;48.812;9.128;2023-07-13T11:54:46;0.10;;;0.10;;
22107;SDS011;11220;48.812;9.128;2023-07-13T11:57:24;0.20;;;0.20;;
22107;SDS011;11220;48.812;9.128;2023-07-13T11:59:53;0.10;;;0.10;;
22107;SDS011;11220;48.812;9.128;2023-07-13T12:02:31;0.20;;;0.20;;
22107;SDS011;11220;48.812;9.128;2023-07-13T12:04:59;0.10;;;0.10;;
22107;SDS011;11220;48.812;9.128;2023-07-13T12:07:28;0.40;;;0.20;;
22107;SDS011;11220;48.812;9.128;2023-07-13T12:10:03;0.17;;;0.17;;
22107;SDS011;11220;48.812;9.128;2023-07-13T12:12:51;0.10;;;0.10;;
22107;SDS011;11220;48.812;9.128;2023-07-13T12:15:36;0.08;;;0.08;;
22107;SDS011;11220;48.812;9.128;2023-07-13T12:18:02;0.10;;;0.10;;
22107;SDS011;11220;48.812;9.128;2023-07-13T12:20:37;0.30;;;0.10;;
22107;SDS011;11220;48.812;9.128;2023-07-13T12:25:50;0.10;;;0.10;;
22107;SDS011;11220;48.812;9.128;2023-07-13T12:28:23;0.10;;;0.10;;
22107;SDS011;11220;48.812;9.128;2023-07-13T12:31:03;0.20;;;0.20;;
22107;SDS011;11220;48.812;9.128;2023-07-13T12:33:30;0.17;;;0.17;;
22107;SDS011;11220;48.812;9.128;2023-07-13T12:35:57;0.20;;;0.20;;
22107;SDS011;11220;48.812;9.128;2023-07-13T12:40:52;0.10;;;0.10;;
22107;SDS011;11220;48.812;9.128;2023-07-13T12:43:22;0.13;;;0.13;;
22107;SDS011;11220;48.812;9.128;2023-07-13T12:45:55;0.20;;;0.20;;
22107;SDS011;11220;48.812;9.128;2023-07-13T12:48:23;0.15;;;0.15;;
22107;SDS011;11220;48.812;9.128;2023-07-13T12:50:49;0.10;;;0.10;;
22107;SDS011;11220;48.812;9.128;2023-07-13T12:53:38;0.20;;;0.20;;
22107;SDS011;11220;48.812;9.128;2023-07-13T12:56:04;0.20;;;0.13;;
22107;SDS011;11220;48.812;9.128;2023-07-13T12:58:36;0.20;;;0.20;;
22107;SDS011;11220;48.812;9.128;2023-07-13T13:01:05;0.10;;;0.10;;
22107;SDS011;11220;48.812;9.128;2023-07-13T13:03:37;0.13;;;0.10;;
22107;SDS011;11220;48.812;9.128;2023-07-13T13:06:17;0.10;;;0.10;;
22107;SDS011;11220;48.812;9.128;2023-07-13T13:08:54;0.22;;;0.20;;
22107;SDS011;11220;48.812;9.128;2023-07-13T13:11:23;0.10;;;0.10;;
22107;SDS011;11220;48.812;9.128;2023-07-13T13:13:50;0.10;;;0.10;;
22107;SDS011;11220;48.812;9.128;2023-07-13T13:16:19;0.10;;;0.10;;
22107;SDS011;11220;48.812;9.128;2023-07-13T13:18:49;0.25;;;0.10;;
22107;SDS011;11220;48.812;9.128;2023-07-13T13:21:17;0.20;;;0.17;;
22107;SDS011;11220;48.812;9.128;2023-07-13T13:23:43;0.10;;;0.10;;
22107;SDS011;11220;48.812;9.128;2023-07-13T13:26:10;0.10;;;0.00;;
22107;SDS011;11220;48.812;9.128;2023-07-13T13:28:37;0.20;;;0.10;;
22107;SDS011;11220;48.812;9.128;2023-07-13T13:31:03;0.10;;;0.10;;
22107;SDS011;11220;48.812;9.128;2023-07-13T13:33:28;0.20;;;0.10;;
22107;SDS011;11220;48.812;9.128;2023-07-13T13:35:55;0.20;;;0.15;;
22107;SDS011;11220;48.812;9.128;2023-07-13T13:38:23;0.17;;;0.17;;
22107;SDS011;11220;48.812;9.128;2023-07-13T13:40:51;0.32;;;0.30;;
22107;SDS011;11220;48.812;9.128;2023-07-13T13:43:17;0.22;;;0.17;;
22107;SDS011;11220;48.812;9.128;2023-07-13T13:45:45;0.13;;;0.13;;
22107;SDS011;11220;48.812;9.128;2023-07-13T13:48:18;0.20;;;0.10;;
22107;SDS011;11220;48.812;9.128;2023-07-13T13:50:55;0.20;;;0.15;;
22107;SDS011;11220;48.812;9.128;2023-07-13T13:53:21;0.43;;;0.10;;
22107;SDS011;11220;48.812;9.128;2023-07-13T13:55:48;0.10;;;0.10;;
22107;SDS011;11220;48.812;9.128;2023-07-13T13:58:14;0.15;;;0.10;;
22107;SDS011;11220;48.812;9.128;2023-07-13T14:00:40;0.10;;;0.10;;
22107;SDS011;11220;48.812;9.128;2023-07-13T14:03:08;0.10;;;0.10;;
22107;SDS011;11220;48.812;9.128;2023-07-13T14:05:41;0.10;;;0.10;;
22107;SDS011;11220;48.812;9.128;2023-07-13T14:08:14;0.20;;;0.20;;
22107;SDS011;11220;48.812;9.128;2023-07-13T14:10:44;0.10;;;0.10;;
22107;SDS011;11220;48.812;9.128;2023-07-13T14:13:54;0.30;;;0.10;;
22107;SDS011;11220;48.812;9.128;2023-07-13T14:16:11;0.10;;;0.10;;
22107;SDS011;11220;48.812;9.128;2023-07-13T14:18:46;0.20;;;0.10;;
22107;SDS011;11220;48.812;9.128;2023-07-13T14:21:19;0.10;;;0.10;;
22107;SDS011;11220;48.812;9.128;2023-07-13T14:23:46;0.28;;;0.20;;
22107;SDS011;11220;48.812;9.128;2023-07-13T14:26:17;0.20;;;0.10;;
22107;SDS011;11220;48.812;9.128;2023-07-13T14:28:45;0.10;;;0.10;;
22107;SDS011;11220;48.812;9.128;2023-07-13T14:31:16;0.10;;;0.10;;
22107;SDS011;11220;48.812;9.128;2023-07-13T14:33:43;0.20;;;0.20;;
22107;SDS011;11220;48.812;9.128;2023-07-13T14:38:50;0.10;;;0.10;;
22107;SDS011;11220;48.812;9.128;2023-07-13T14:41:16;0.10;;;0.10;;
22107;SDS011;11220;48.812;9.128;2023-07-13T14:43:41;0.20;;;0.20;;
22107;SDS011;11220;48.812;9.128;2023-07-13T14:46:07;0.13;;;0.13;;
22107;SDS011;11220;48.812;9.128;2023-07-13T14:48:53;0.10;;;0.10;;
22107;SDS011;11220;48.812;9.128;2023-07-13T14:51:25;0.10;;;0.10;;
22107;SDS011;11220;48.812;9.128;2023-07-13T14:53:51;0.28;;;0.20;;
22107;SDS011;11220;48.812;9.128;2023-07-13T14:56:16;0.10;;;0.10;;
22107;SDS011;11220;48.812;9.128;2023-07-13T14:58:42;0.10;;;0.10;;
22107;SDS011;11220;48.812;9.128;2023-07-13T15:01:11;0.10;;;0.10;;
22107;SDS011;11220;48.812;9.128;2023-07-13T15:03:41;0.10;;;0.10;;
22107;SDS011;11220;48.812;9.128;2023-07-13T15:06:10;0.10;;;0.10;;
22107;SDS011;11220;48.812;9.128;2023-07-13T15:08:37;0.10;;;0.10;;
22107;SDS011;11220;48.812;9.128;2023-07-13T15:11:02;0.10;;;0.10;;
22107;SDS011;11220;48.812;9.128;2023-07-13T15:13:29;0.20;;;0.20;;
22107;SDS011;11220;48.812;9.128;2023-07-13T15:16:21;0.10;;;0.10;;
22107;SDS011;11220;48.812;9.128;2023-07-13T15:18:49;0.20;;;0.20;;
22107;SDS011;11220;48.812;9.128;2023-07-13T15:21:20;0.20;;;0.20;;
22107;SDS011;11220;48.812;9.128;2023-07-13T15:23:47;0.13;;;0.13;;
22107;SDS011;11220;48.812;9.128;2023-07-13T15:26:16;0.35;;;0.20;;
22107;SDS011;11220;48.812;9.128;2023-07-13T15:28:46;0.10;;;0.10;;
22107;SDS011;11220;48.812;9.128;2023-07-13T15:31:17;0.10;;;0.10;;
22107;SDS011;11220;48.812;9.128;2023-07-13T15:33:49;0.10;;;0.10;;
22107;SDS011;11220;48.812;9.128;2023-07-13T15:36:16;0.15;;;0.10;;
22107;SDS011;11220;48.812;9.128;2023-07-13T15:38:43;0.03;;;0.03;;
22107;SDS011;11220;48.812;9.128;2023-07-13T15:43:43;0.20;;;0.20;;
22107;SDS011;11220;48.812;9.128;2023-07-13T15:46:09;0.28;;;0.20;;
22107;SDS011;11220;48.812;9.128;2023-07-13T15:48:35;1.00;;;0.17;;